| time (UTC) | temp F | wind direction | speed MPH | gust MPH | rain 1hr in | rain 24hr in | rain mn in | humidity % | barometer mb |
| 20260506073041 | 48 | 0 | 0.0 | 0.0 | 0.00 | 0.14 | 0.00 | 95 | 1019.6 |
| 20260506071534 | 47 | 0 | 0.0 | 0.0 | 0.00 | 0.14 | 0.00 | 95 | 1019.2 |
| 20260506061535 | 49 | 0 | 0.0 | 0.0 | 0.00 | 0.19 | 0.14 | 93 | 1018.2 |
| 20260506044543 | 49 | 0 | 0.0 | 0.0 | 0.00 | 0.21 | 0.14 | 92 | 1017.4 |
| 20260506043033 | 50 | 0 | 0.0 | 0.0 | 0.00 | 0.21 | 0.14 | 92 | 1017.2 |
| 20260506041532 | 51 | 0 | 0.0 | 0.0 | 0.00 | 0.21 | 0.14 | 91 | 1017.2 |
| 20260506040054 | 51 | 0 | 0.0 | 0.0 | 0.00 | 0.21 | 0.14 | 91 | 1017.3 |
| 20260506034535 | 51 | 0 | 0.0 | 0.0 | 0.00 | 0.21 | 0.14 | 90 | 1016.9 |
| 20260506033034 | 51 | 0 | 0.0 | 0.0 | 0.00 | 0.21 | 0.14 | 91 | 1016.7 |
| 20260506031544 | 51 | 0 | 0.0 | 0.0 | 0.00 | 0.21 | 0.14 | 90 | 1016.5 |
| 20260506030033 | 51 | 0 | 0.0 | 0.0 | 0.00 | 0.21 | 0.14 | 90 | 1016.4 |
| 20260506024535 | 52 | 0 | 0.0 | 0.0 | 0.00 | 0.21 | 0.14 | 89 | 1016.4 |
| 20260506023032 | 52 | 0 | 0.0 | 0.0 | 0.00 | 0.21 | 0.14 | 89 | 1016.3 |
| 20260506021534 | 52 | 0 | 0.0 | 0.0 | 0.00 | 0.21 | 0.14 | 88 | 1016.2 |
| 20260506020033 | 52 | 0 | 0.0 | 0.0 | 0.00 | 0.21 | 0.14 | 87 | 1016.2 |
| 20260506014534 | 52 | 0 | 0.0 | 0.0 | 0.00 | 0.21 | 0.14 | 86 | 1016.0 |
| 20260506013031 | 52 | 0 | 0.0 | 1.0 | 0.00 | 0.21 | 0.14 | 85 | 1016.1 |
| 20260506011537 | 53 | 0 | 0.0 | 0.0 | 0.00 | 0.21 | 0.14 | 85 | 1016.2 |
| 20260506010036 | 53 | 0 | 0.0 | 0.0 | 0.00 | 0.21 | 0.14 | 84 | 1016.1 |
| 20260506004531 | 54 | 0 | 0.0 | 0.0 | 0.00 | 0.21 | 0.14 | 84 | 1016.1 |
| 20260506003037 | 54 | 0 | 0.0 | 0.0 | 0.00 | 0.21 | 0.14 | 84 | 1016.0 |
| 20260506001533 | 53 | 0 | 0.0 | 1.0 | 0.00 | 0.21 | 0.14 | 86 | 1016.0 |
| 20260506000033 | 52 | 0 | 0.0 | 1.0 | 0.00 | 0.21 | 0.14 | 87 | 1015.9 |
| 20260505234540 | 52 | 143 | 0.0 | 2.0 | 0.00 | 0.21 | 0.14 | 86 | 1015.8 |
| 20260505233034 | 53 | 0 | 0.0 | 1.0 | 0.00 | 0.21 | 0.14 | 84 | 1015.8 |
| 20260505231545 | 52 | 0 | 0.0 | 1.0 | 0.00 | 0.21 | 0.14 | 85 | 1015.7 |
| 20260505230034 | 52 | 0 | 0.0 | 1.0 | 0.00 | 0.21 | 0.14 | 86 | 1015.7 |
| 20260505224532 | 51 | 0 | 0.0 | 1.0 | 0.00 | 0.25 | 0.14 | 84 | 1015.7 |
| 20260505223039 | 51 | 0 | 0.0 | 1.0 | 0.00 | 0.25 | 0.14 | 86 | 1015.8 |
| 20260505221532 | 52 | 0 | 0.0 | 1.0 | 0.00 | 0.25 | 0.14 | 87 | 1015.7 |
| 20260505220040 | 52 | 0 | 0.0 | 1.0 | 0.00 | 0.25 | 0.14 | 86 | 1015.8 |
| 20260505214539 | 52 | 0 | 0.0 | 2.0 | 0.00 | 0.30 | 0.14 | 87 | 1015.8 |
| 20260505213035 | 51 | 0 | 0.0 | 2.0 | 0.00 | 0.30 | 0.14 | 87 | 1015.9 |
| 20260505211534 | 51 | 0 | 0.0 | 1.0 | 0.00 | 0.30 | 0.14 | 85 | 1015.9 |
| 20260505210033 | 51 | 0 | 0.0 | 1.0 | 0.00 | 0.30 | 0.14 | 86 | 1015.9 |
| 20260505204536 | 51 | 0 | 0.0 | 1.0 | 0.00 | 0.31 | 0.14 | 87 | 1015.8 |
| 20260505203034 | 51 | 126 | 0.0 | 3.0 | 0.00 | 0.31 | 0.14 | 85 | 1015.8 |
| 20260505201535 | 50 | 151 | 1.0 | 3.0 | 0.00 | 0.31 | 0.14 | 87 | 1015.7 |
| 20260505200040 | 50 | 0 | 0.0 | 3.0 | 0.00 | 0.31 | 0.14 | 88 | 1015.9 |
| 20260505194537 | 50 | 0 | 0.0 | 3.0 | 0.00 | 0.32 | 0.14 | 88 | 1015.9 |
| 20260505193031 | 50 | 0 | 0.0 | 1.0 | 0.00 | 0.32 | 0.14 | 88 | 1015.9 |
| 20260505191532 | 50 | 109 | 0.0 | 4.0 | 0.00 | 0.32 | 0.14 | 88 | 1015.8 |
| 20260505190038 | 50 | 0 | 0.0 | 3.0 | 0.00 | 0.32 | 0.14 | 87 | 1015.8 |
| 20260505184534 | 50 | 70 | 1.0 | 7.0 | 0.00 | 0.34 | 0.14 | 87 | 1015.5 |
| 20260505183035 | 50 | 91 | 0.0 | 5.0 | 0.00 | 0.34 | 0.14 | 89 | 1015.5 |
| 20260505181535 | 50 | 91 | 0.0 | 5.0 | 0.00 | 0.34 | 0.14 | 90 | 1015.4 |
| 20260505180040 | 49 | 135 | 2.0 | 5.0 | 0.00 | 0.34 | 0.14 | 90 | 1015.3 |
| 20260505174539 | 49 | 176 | 0.0 | 6.0 | 0.00 | 0.34 | 0.14 | 90 | 1015.2 |
| 20260505173032 | 49 | 65 | 2.0 | 6.0 | 0.00 | 0.34 | 0.14 | 89 | 1014.8 |
| 20260505171535 | 49 | 143 | 2.0 | 5.0 | 0.00 | 0.34 | 0.14 | 91 | 1014.8 |
| 20260505170033 | 49 | 104 | 0.0 | 1.0 | 0.00 | 0.34 | 0.14 | 91 | 1014.9 |
| 20260505164535 | 49 | 169 | 0.0 | 4.0 | 0.00 | 0.35 | 0.14 | 92 | 1014.6 |
| 20260505163036 | 49 | 84 | 0.0 | 3.0 | 0.01 | 0.35 | 0.14 | 91 | 1014.8 |
| 20260505161536 | 48 | 91 | 0.0 | 2.0 | 0.03 | 0.35 | 0.14 | 94 | 1014.8 |
| 20260505153032 | 47 | 0 | 0.0 | 1.0 | 0.04 | 0.34 | 0.13 | 95 | 1014.5 |
| 20260505151534 | 47 | 0 | 0.0 | 1.0 | 0.02 | 0.32 | 0.11 | 96 | 1014.6 |
| 20260505124538 | 46 | 0 | 0.0 | 0.0 | 0.02 | 0.41 | 0.08 | 95 | 1013.9 |
| 20260505123038 | 46 | 0 | 0.0 | 0.0 | 0.01 | 0.40 | 0.07 | 95 | 1013.9 |
| 20260505121535 | 46 | 0 | 0.0 | 0.0 | 0.00 | 0.39 | 0.06 | 95 | 1013.9 |
| 20260505120031 | 46 | 0 | 0.0 | 0.0 | 0.00 | 0.39 | 0.06 | 95 | 1013.7 |
| 20260505114531 | 46 | 0 | 0.0 | 0.0 | 0.00 | 0.40 | 0.06 | 94 | 1013.7 |
| 20260505113031 | 46 | 0 | 0.0 | 1.0 | 0.00 | 0.40 | 0.06 | 94 | 1013.9 |
| 20260505111538 | 46 | 0 | 0.0 | 0.0 | 0.00 | 0.40 | 0.06 | 94 | 1014.0 |
| 20260505101534 | 46 | 0 | 0.0 | 0.0 | 0.01 | 0.40 | 0.06 | 94 | 1014.0 |
| 20260505100035 | 46 | 0 | 0.0 | 0.0 | 0.01 | 0.40 | 0.06 | 94 | 1014.1 |
| 20260505094536 | 46 | 0 | 0.0 | 0.0 | 0.00 | 0.39 | 0.05 | 94 | 1014.0 |
| 20260505093033 | 46 | 0 | 0.0 | 0.0 | 0.01 | 0.39 | 0.05 | 94 | 1014.1 |
| 20260505091535 | 46 | 0 | 0.0 | 0.0 | 0.02 | 0.39 | 0.05 | 94 | 1014.3 |
| 20260505090038 | 46 | 0 | 0.0 | 1.0 | 0.02 | 0.39 | 0.05 | 94 | 1014.4 |
| 20260505084535 | 46 | 0 | 0.0 | 1.0 | 0.03 | 0.39 | 0.05 | 94 | 1014.4 |
| 20260505083033 | 46 | 356 | 0.0 | 1.0 | 0.02 | 0.38 | 0.04 | 94 | 1014.6 |
| 20260505081542 | 46 | 0 | 0.0 | 1.0 | 0.02 | 0.37 | 0.03 | 94 | 1014.5 |